コルカタ の空港の天気 - METARとTAF

ネータージー・スバース・チャンドラ・ボース国際空港 ( VECC / CCU ) - インド コルカタ
飛行場実況気象(Metar)
観測時間09/26 02:00 IST (09/25 20:30 UTC)
風向・風速静穏 0m/s
視程3200m
天気現象煙霧
少しの雲 雲底高度 550m
全天の4割程度の雲 雲底高度 3050m
気温28℃
湿度84%
気圧1006hPa
METARVECC 252030Z 00000KT 3200 HZ FEW018 SCT100 28/25 Q1006 NOSIG
過去の天気等 Google飛行場航空写真 Wunderground天気予報

過去48時間のMETAR

飛行場予報(TAF)
発表時間: 9/25 22:30 IST (9/25 17:00 UTC)
予報対象時間: 25日23時 IST ~ 26日8時 IST
風向・風速静穏
視程3200m
天気現象弱い雨 煙霧
少しの雲 雲底高度 550m
全天の4割程度の雲 雲底高度 3050m
26日5時 IST ~ 26日7時 IST に徐々に
視程2500m
天気現象弱い雨 煙霧
TAF VECC 251700Z 2518/2603 00000KT 3200 -RA HZ FEW018 SCT100
BECMG 2600/2602 2500 -RA HZ